Airfield :
LOGIN :

Register | Disclaimer

   EN    FR    IT 

 










Legend :    VFR   Marginal VFR   IFR   Intensive IFR   Very Intensive IFR
Visi :
Ceiling :
>= 8 km
>= 3000ft
5 to 8 km
1000 to 3000 ft
1500m to 5 km
500 to 1000 ft
800 to 1500m
200 to 500 ft
< 800m
< 200 ft
Symbols :   Thunderstorms  Fog  Heavy snow  Heavy precipitations  Wind > 20 kt
SIGMETs :     Misc.  Thunderstorms  Icing  Turbulence  Mountain Waves  Volcanic Ashes







- Airport Elevation : 665 ft
- IATA code : NOC


EIKN - Connaught / Knock- Ireland West

CURRENT METAR :
  • 241000Z 21009KT 170V250 9999 BKN009 BKN024 09/08 Q1008 NOSIG

EXPIRED METARs :
  • 240930Z 19008KT 160V240 9999 -RA BKN007 BKN041 09/07 Q1008 NOSIG
  • 240900Z 19006KT 160V230 9999 SCT006 SCT048 BKN090 08/07 Q1009 NOSIG
  • 240830Z 20007KT 170V230 9999 FEW005 BKN110 08/07 Q1009 NOSIG
  • 240800Z 19006KT 150V230 9999 FEW015 BKN140 08/06 Q1009 NOSIG
  • 240730Z 19005KT 160V220 9999 FEW015 SCT053 BKN110 07/06 Q1009 NOSIG

TAF AMD TAF EIKN
Valid from the 24 at 09:00 until the 25 at 06:00 UTC


240953Z 2409/2506 22010KT 9999 SCT013 BKN016
TEMPO 2409/2411 5000 -RA BKN004
TEMPO 2413/2418 5000 SHRA SCT010 SCT018CB
BECMG 2414/2417 27012KT
BECMG 2421/2424 23012KT
No reported NOTAMs for that airfield.



MET'MAP, your aeronautical weather chart ! - Copyright ORBIFLY December 2007 - Disclaimer

ORBIFLY MET'MAP TEAM :

Programming & Development : Alexandra Zaïnal
Concept & Development : Baudouin d'Aumeries
Co-Development & Prog : Marc-Olivier Méhu
Technical & hardware support : Manuel Goepfert

Contact : metmap@orbifly.com




SOURCES & CREDITS :

   NOAA